createdAt,value
2022-12-19T00:01:31.099Z,39.30
2022-12-19T00:04:00.284Z,43.63
2022-12-19T00:06:27.767Z,34.95
2022-12-19T00:08:55.673Z,33.25
2022-12-19T00:11:23.846Z,33.70
2022-12-19T00:13:50.609Z,36.47
2022-12-19T00:16:22.929Z,35.75
2022-12-19T00:18:50.882Z,32.60
2022-12-19T00:21:24.897Z,38.47
2022-12-19T00:23:52.063Z,34.92
2022-12-19T00:26:33.788Z,36.03
2022-12-19T00:29:02.991Z,31.08
2022-12-19T00:31:32.030Z,33.45
2022-12-19T00:33:59.231Z,32.80
2022-12-19T00:36:29.088Z,34.05
2022-12-19T00:38:57.979Z,37.08
2022-12-19T00:41:26.735Z,38.13
2022-12-19T00:43:59.046Z,34.47
2022-12-19T00:46:27.147Z,33.53
2022-12-19T00:48:53.956Z,33.97
2022-12-19T00:51:23.297Z,35.10
2022-12-19T00:53:51.135Z,39.35
2022-12-19T00:56:21.830Z,34.53
2022-12-19T00:58:48.416Z,36.92
2022-12-19T01:01:20.757Z,35.45
2022-12-19T01:04:18.751Z,29.02
2022-12-19T01:06:54.521Z,39.65
2022-12-19T01:09:27.478Z,34.28
2022-12-19T01:12:12.453Z,40.88
2022-12-19T01:14:38.791Z,34.95
2022-12-19T01:17:05.126Z,38.75
2022-12-19T01:19:31.430Z,38.65
2022-12-19T01:21:57.708Z,37.38
2022-12-19T01:24:24.250Z,36.97
2022-12-19T01:26:50.542Z,34.22
2022-12-19T01:29:16.909Z,36.08
2022-12-19T01:31:43.422Z,40.00
2022-12-19T01:34:10.031Z,36.15
2022-12-19T01:36:40.105Z,38.78
2022-12-19T01:39:07.390Z,28.10
2022-12-19T01:41:33.890Z,32.53
2022-12-19T01:44:06.013Z,36.63
2022-12-19T01:46:39.844Z,36.92
2022-12-19T01:49:14.890Z,33.53
2022-12-19T01:51:46.671Z,38.53
2022-12-19T01:54:21.434Z,38.53
2022-12-19T01:56:51.730Z,35.88
2022-12-19T01:59:25.483Z,34.78
2022-12-19T02:01:58.471Z,32.58
2022-12-19T02:04:32.423Z,36.45
2022-12-19T02:07:04.280Z,40.30
2022-12-19T02:09:42.123Z,36.40
2022-12-19T02:12:08.445Z,38.67
2022-12-19T02:14:35.461Z,34.60
2022-12-19T02:17:16.393Z,35.95
2022-12-19T02:20:12.832Z,40.17
2022-12-19T02:26:03.713Z,38.67
2022-12-19T02:29:04.604Z,28.67
2022-12-19T02:31:42.439Z,32.67
2022-12-19T02:34:31.805Z,35.20
2022-12-19T02:37:11.001Z,40.15
2022-12-19T02:39:52.333Z,36.58
2022-12-19T02:42:31.848Z,32.08
2022-12-19T02:45:01.152Z,36.85
2022-12-19T02:47:30.083Z,38.05
2022-12-19T02:49:56.685Z,34.88
2022-12-19T02:52:23.017Z,38.40
2022-12-19T02:54:58.926Z,36.42
2022-12-19T02:57:33.658Z,31.83
2022-12-19T03:00:08.261Z,38.78
2022-12-19T03:02:39.805Z,35.77
2022-12-19T03:05:19.869Z,40.67
2022-12-19T03:08:11.038Z,40.60
2022-12-19T03:11:13.273Z,38.17
2022-12-19T03:13:44.646Z,34.70
2022-12-19T03:16:12.225Z,36.70
2022-12-19T03:18:39.262Z,34.95
2022-12-19T03:21:21.148Z,35.45
2022-12-19T03:23:50.245Z,39.15
2022-12-19T03:26:19.876Z,43.42
2022-12-19T03:28:53.849Z,33.78
2022-12-19T03:31:23.734Z,36.70
2022-12-19T03:33:59.549Z,40.00
2022-12-19T03:36:33.478Z,38.55
2022-12-19T03:39:04.223Z,40.80
2022-12-19T03:41:50.320Z,41.97
2022-12-19T03:44:19.047Z,41.15
2022-12-19T03:46:56.412Z,38.45
2022-12-19T03:49:22.875Z,37.65
2022-12-19T03:52:25.062Z,36.75
2022-12-19T03:55:00.955Z,38.42
2022-12-19T03:57:35.907Z,39.75
2022-12-19T04:00:07.808Z,37.53
2022-12-19T04:02:38.024Z,40.45
2022-12-19T04:05:12.141Z,41.17
2022-12-19T04:07:39.886Z,33.63
2022-12-19T04:10:09.312Z,42.08
2022-12-19T04:12:43.999Z,35.20
2022-12-19T04:15:10.854Z,39.50
2022-12-19T04:17:40.037Z,43.00
2022-12-19T04:20:12.441Z,32.72
2022-12-19T04:22:42.025Z,38.72
2022-12-19T04:25:15.538Z,36.33
2022-12-19T04:27:50.572Z,37.33
2022-12-19T04:30:18.528Z,47.17
2022-12-19T04:32:45.735Z,40.38
2022-12-19T04:35:12.682Z,36.08
2022-12-19T04:37:39.997Z,36.38
2022-12-19T04:40:08.119Z,37.55
2022-12-19T04:42:34.703Z,43.90
2022-12-19T04:45:01.048Z,39.70
2022-12-19T04:47:27.644Z,37.60
2022-12-19T04:49:53.938Z,37.30
2022-12-19T04:52:20.495Z,30.75
2022-12-19T04:54:46.934Z,37.38
2022-12-19T04:57:13.318Z,38.60
2022-12-19T04:59:39.682Z,39.40
2022-12-19T05:02:07.435Z,41.47
2022-12-19T05:04:34.562Z,39.28
2022-12-19T05:07:00.912Z,45.38
2022-12-19T05:09:27.223Z,36.92
2022-12-19T05:11:53.587Z,39.60
2022-12-19T05:14:19.928Z,42.42
2022-12-19T05:16:46.232Z,42.30
2022-12-19T05:19:12.587Z,35.75
2022-12-19T05:21:40.599Z,36.30
2022-12-19T05:24:07.342Z,42.75
2022-12-19T05:26:33.669Z,36.58
2022-12-19T05:29:00.004Z,41.83
2022-12-19T05:31:26.495Z,39.42
2022-12-19T05:33:52.933Z,38.75
2022-12-19T05:36:20.091Z,47.03
2022-12-19T05:38:46.498Z,42.70
2022-12-19T05:41:18.926Z,37.95
2022-12-19T05:43:50.411Z,40.50
2022-12-19T05:46:17.190Z,39.35
2022-12-19T05:48:43.584Z,41.17
2022-12-19T05:51:10.543Z,44.70
2022-12-19T05:53:37.861Z,39.78
2022-12-19T05:56:05.056Z,42.38
2022-12-19T05:58:32.251Z,43.30
2022-12-19T06:01:07.272Z,42.63
2022-12-19T06:03:33.971Z,33.83
2022-12-19T06:06:04.542Z,41.95
2022-12-19T06:08:31.761Z,45.30
2022-12-19T06:11:00.109Z,43.08
2022-12-19T06:13:27.873Z,42.05
2022-12-19T06:15:59.468Z,43.90
2022-12-19T06:18:27.000Z,39.03
2022-12-19T06:21:21.109Z,44.70
2022-12-19T06:23:47.747Z,37.80
2022-12-19T06:26:19.562Z,41.10
2022-12-19T06:28:47.765Z,35.80
2022-12-19T06:31:14.718Z,39.78
2022-12-19T06:33:41.407Z,46.33
2022-12-19T06:36:12.947Z,35.53
2022-12-19T06:38:39.309Z,35.85
2022-12-19T06:41:24.276Z,36.13
2022-12-19T06:43:53.621Z,46.70
2022-12-19T06:46:20.557Z,37.55
2022-12-19T06:48:46.983Z,35.63
2022-12-19T06:51:13.376Z,39.30
2022-12-19T06:53:40.275Z,41.83
2022-12-19T06:56:07.089Z,43.47
2022-12-19T06:58:34.717Z,41.97
2022-12-19T07:01:01.605Z,43.22
2022-12-19T07:03:32.031Z,37.00
2022-12-19T07:05:58.510Z,41.67
2022-12-19T07:08:24.889Z,34.08
2022-12-19T07:10:52.844Z,45.60
2022-12-19T07:13:19.176Z,41.22
2022-12-19T07:15:45.692Z,46.65
2022-12-19T07:18:12.420Z,38.42
2022-12-19T07:20:45.054Z,40.50
2022-12-19T07:23:16.847Z,41.60
2022-12-19T07:25:43.310Z,40.45
2022-12-19T07:28:09.797Z,39.83
2022-12-19T07:30:36.188Z,43.30
2022-12-19T07:33:02.689Z,38.67
2022-12-19T07:35:29.481Z,44.47
2022-12-19T07:38:01.629Z,39.60
2022-12-19T07:40:28.164Z,42.00
2022-12-19T07:42:54.608Z,49.88
2022-12-19T07:45:21.108Z,39.53
2022-12-19T07:47:47.899Z,33.05
2022-12-19T07:50:14.322Z,47.00
2022-12-19T07:52:40.893Z,40.08
2022-12-19T07:55:07.572Z,45.13
2022-12-19T07:57:34.258Z,38.72
2022-12-19T08:00:00.566Z,41.00
2022-12-19T08:02:27.125Z,43.35
2022-12-19T08:04:54.579Z,37.55
2022-12-19T08:07:21.085Z,45.55
2022-12-19T08:09:47.608Z,39.38
2022-12-19T08:12:14.028Z,41.70
2022-12-19T08:14:40.376Z,48.85
2022-12-19T08:17:22.332Z,34.90
2022-12-19T08:19:48.815Z,41.78
2022-12-19T08:22:15.174Z,43.30
2022-12-19T08:24:41.535Z,44.58
2022-12-19T08:27:07.871Z,49.22
2022-12-19T08:29:34.178Z,38.50
2022-12-19T08:32:00.536Z,44.17
2022-12-19T08:34:26.988Z,42.50
2022-12-19T08:36:53.289Z,45.97
2022-12-19T08:39:19.615Z,43.38
2022-12-19T08:41:45.989Z,41.58
2022-12-19T08:44:13.167Z,41.90
2022-12-19T08:46:43.540Z,44.40
2022-12-19T08:49:12.968Z,42.28
2022-12-19T08:51:39.330Z,43.05
2022-12-19T08:54:06.519Z,48.35
2022-12-19T08:56:37.089Z,42.95
2022-12-19T08:59:08.843Z,42.17
2022-12-19T09:01:35.245Z,43.65
2022-12-19T09:04:19.095Z,45.00
2022-12-19T09:06:48.150Z,45.25
2022-12-19T09:09:14.756Z,41.22
2022-12-19T09:11:41.227Z,43.30
2022-12-19T09:14:14.373Z,37.63
2022-12-19T09:16:42.140Z,42.10
2022-12-19T09:19:13.685Z,41.00
2022-12-19T09:21:40.048Z,39.35
2022-12-19T09:24:08.118Z,43.80
2022-12-19T09:26:35.725Z,44.58
2022-12-19T09:29:03.606Z,39.58
2022-12-19T09:31:34.647Z,43.55
2022-12-19T09:34:00.982Z,40.63
2022-12-19T09:36:27.838Z,43.58
2022-12-19T09:38:55.808Z,38.15
2022-12-19T09:41:37.495Z,46.72
2022-12-19T09:44:22.399Z,42.88
2022-12-19T09:46:56.164Z,40.88
2022-12-19T09:49:25.860Z,38.67
2022-12-19T09:52:05.244Z,42.78
2022-12-19T09:54:38.123Z,49.60
2022-12-19T09:57:10.643Z,45.55
2022-12-19T09:59:49.896Z,44.28
2022-12-19T10:02:26.703Z,40.72
2022-12-19T10:05:25.678Z,47.28
2022-12-19T10:08:09.071Z,46.88
2022-12-19T10:12:36.465Z,48.83
2022-12-19T10:14:05.678Z,42.38
2022-12-19T10:17:23.002Z,40.28
2022-12-19T10:19:57.989Z,44.28
2022-12-19T10:22:33.236Z,48.15
2022-12-19T10:25:18.098Z,47.50
2022-12-19T10:27:59.377Z,44.00
2022-12-19T10:30:31.382Z,45.50
2022-12-19T10:33:29.532Z,40.33
2022-12-19T10:36:02.395Z,41.50
2022-12-19T10:38:40.579Z,46.13
2022-12-19T10:41:18.828Z,44.88
2022-12-19T10:44:06.627Z,44.03
2022-12-19T10:46:43.129Z,40.65
2022-12-19T10:49:22.084Z,45.30
2022-12-19T10:52:02.043Z,50.33
2022-12-19T10:54:37.513Z,43.70
2022-12-19T10:57:22.760Z,44.28
2022-12-19T11:00:16.052Z,44.78
2022-12-19T11:02:47.963Z,40.13
2022-12-19T11:05:23.783Z,42.28
2022-12-19T11:08:08.582Z,47.00
2022-12-19T11:12:37.146Z,45.95
2022-12-19T11:18:01.560Z,46.03
2022-12-19T11:21:27.018Z,43.90
2022-12-19T11:29:16.649Z,51.20
2022-12-19T11:29:41.737Z,42.08
2022-12-19T11:30:36.955Z,43.75
2022-12-19T11:30:41.739Z,47.17
2022-12-19T11:34:19.284Z,43.10
2022-12-19T11:37:21.271Z,46.10
2022-12-19T11:39:53.897Z,44.17
2022-12-19T11:42:27.149Z,41.17
2022-12-19T11:45:15.037Z,37.63
2022-12-19T11:48:03.359Z,51.00
2022-12-19T11:50:39.032Z,46.42
2022-12-19T11:53:19.129Z,47.88
2022-12-19T11:56:05.243Z,43.35
2022-12-19T12:01:36.470Z,45.28
2022-12-19T12:04:21.830Z,42.10
2022-12-19T12:06:53.214Z,49.70
2022-12-19T12:14:52.161Z,38.60
2022-12-19T12:16:37.161Z,45.85
2022-12-19T12:29:41.721Z,41.10
2022-12-19T12:31:08.555Z,49.47
2022-12-19T12:31:11.129Z,42.83
2022-12-19T12:31:47.164Z,43.83
2022-12-19T12:32:04.345Z,39.00
2022-12-19T12:35:33.434Z,52.30
2022-12-19T12:35:54.320Z,45.55
2022-12-19T12:40:45.840Z,46.03
2022-12-19T12:43:48.983Z,44.40
2022-12-19T12:46:28.538Z,49.22
2022-12-19T12:49:06.203Z,40.63
2022-12-19T12:51:34.895Z,37.65
2022-12-19T12:54:09.399Z,47.38
2022-12-19T12:56:36.937Z,48.25
2022-12-19T12:59:25.612Z,44.88
2022-12-19T13:02:21.104Z,51.55
2022-12-19T13:05:00.376Z,61.17
2022-12-19T13:07:41.202Z,55.15
2022-12-19T13:10:13.704Z,48.25
2022-12-19T13:13:00.749Z,58.28
2022-12-19T13:15:27.051Z,44.60
2022-12-19T13:17:53.335Z,48.53
2022-12-19T13:20:28.967Z,39.70
2022-12-19T13:22:58.470Z,44.95
2022-12-19T13:25:30.532Z,38.33
2022-12-19T13:28:13.305Z,46.88
2022-12-19T13:31:21.170Z,45.45
2022-12-19T13:33:51.585Z,38.33
2022-12-19T13:39:51.354Z,45.28
2022-12-19T13:40:11.303Z,46.95
2022-12-19T13:43:11.905Z,46.33
2022-12-19T13:45:41.601Z,48.88
2022-12-19T13:48:16.390Z,50.95
2022-12-19T13:50:47.461Z,45.80
2022-12-19T13:53:21.775Z,48.83
2022-12-19T13:55:48.680Z,36.35
2022-12-19T13:58:28.937Z,48.53
2022-12-19T14:00:58.874Z,49.10
2022-12-19T14:03:34.621Z,47.35
2022-12-19T14:06:20.618Z,40.50
2022-12-19T14:14:46.878Z,39.33
2022-12-19T14:17:14.550Z,42.25
2022-12-19T14:19:44.261Z,40.60
2022-12-19T14:22:27.420Z,40.08
2022-12-19T14:24:55.865Z,49.88
2022-12-19T14:28:20.291Z,52.92
2022-12-19T14:30:34.808Z,40.60
2022-12-19T14:33:45.559Z,48.63
2022-12-19T14:36:19.910Z,45.72
2022-12-19T14:39:24.576Z,49.20
2022-12-19T14:42:01.921Z,49.75
2022-12-19T14:52:08.625Z,52.83
2022-12-19T14:53:51.709Z,52.03
2022-12-19T14:54:04.231Z,46.70
2022-12-19T14:54:38.019Z,49.92
2022-12-19T14:56:54.201Z,51.78
2022-12-19T14:59:04.593Z,47.50
2022-12-19T15:01:34.169Z,57.65
2022-12-19T15:04:52.199Z,43.63
2022-12-19T15:07:06.812Z,53.50
2022-12-19T15:11:00.652Z,43.38
2022-12-19T15:14:51.743Z,39.78
2022-12-19T15:16:07.275Z,44.22
2022-12-19T15:18:33.748Z,44.25
2022-12-19T15:21:06.424Z,45.20
2022-12-19T15:23:32.871Z,41.90
2022-12-19T15:26:06.525Z,46.05
2022-12-19T15:28:39.984Z,50.63
2022-12-19T15:31:32.910Z,47.15
2022-12-19T15:34:32.869Z,40.97
2022-12-19T15:36:45.642Z,55.70
2022-12-19T15:39:12.024Z,51.05
2022-12-19T15:41:40.384Z,62.05
2022-12-19T15:44:09.859Z,50.90
2022-12-19T15:46:38.902Z,54.80
2022-12-19T15:49:15.571Z,47.17
2022-12-19T15:51:42.079Z,42.22
2022-12-19T15:54:46.580Z,46.33
2022-12-19T15:56:56.203Z,44.60
2022-12-19T15:59:37.453Z,54.25
2022-12-19T16:02:15.662Z,46.65
2022-12-19T16:04:42.454Z,45.03
2022-12-19T16:07:15.489Z,46.28
2022-12-19T16:09:41.896Z,45.25
2022-12-19T16:12:13.579Z,56.38
2022-12-19T16:14:39.988Z,48.67
2022-12-19T16:17:10.454Z,51.50
2022-12-19T16:19:36.732Z,52.03
2022-12-19T16:22:17.733Z,56.50
2022-12-19T16:24:44.185Z,54.03
2022-12-19T16:27:19.355Z,49.65
2022-12-19T16:29:46.094Z,58.60
2022-12-19T16:32:13.783Z,49.92
2022-12-19T16:34:40.120Z,48.88
2022-12-19T16:37:06.788Z,49.60
2022-12-19T16:39:33.119Z,62.10
2022-12-19T16:41:59.497Z,58.42
2022-12-19T16:44:26.096Z,48.00
2022-12-19T16:46:52.516Z,48.00
2022-12-19T16:49:24.356Z,49.53
2022-12-19T16:51:51.491Z,48.50
2022-12-19T16:54:18.359Z,49.75
2022-12-19T16:56:49.816Z,45.35
2022-12-19T16:59:20.917Z,49.47
2022-12-19T17:01:47.899Z,39.80
2022-12-19T17:04:22.965Z,45.95
2022-12-19T17:06:52.826Z,43.03
2022-12-19T17:09:22.987Z,45.97
2022-12-19T17:12:01.145Z,51.80
2022-12-19T17:14:31.705Z,42.00
2022-12-19T17:16:58.733Z,43.90
2022-12-19T17:19:32.012Z,51.00
2022-12-19T17:21:58.321Z,48.38
2022-12-19T17:24:24.649Z,43.17
2022-12-19T17:26:51.219Z,46.00
2022-12-19T17:29:17.589Z,44.28
2022-12-19T17:31:44.191Z,50.60
2022-12-19T17:34:21.081Z,49.30
2022-12-19T17:36:47.556Z,45.90
2022-12-19T17:39:23.140Z,56.15
2022-12-19T17:44:16.894Z,50.90
2022-12-19T17:46:44.427Z,52.00
2022-12-19T17:49:17.028Z,56.30
2022-12-19T17:51:48.466Z,48.38
2022-12-19T17:54:14.836Z,48.08
2022-12-19T17:56:41.261Z,49.92
2022-12-19T17:59:07.627Z,55.40
2022-12-19T18:01:35.294Z,61.05
2022-12-19T18:04:01.828Z,54.47
2022-12-19T18:06:28.220Z,63.60
2022-12-19T18:08:55.032Z,60.88
2022-12-19T18:11:24.785Z,56.10
2022-12-19T18:13:52.253Z,51.45
2022-12-19T18:16:24.261Z,55.35
2022-12-19T18:18:50.742Z,66.85
2022-12-19T18:21:19.035Z,67.55
2022-12-19T18:23:46.291Z,83.28
2022-12-19T18:26:13.118Z,62.63
2022-12-19T18:28:40.057Z,63.47
2022-12-19T18:31:25.337Z,64.50
2022-12-19T18:33:53.849Z,59.28
2022-12-19T18:36:23.931Z,70.10
2022-12-19T18:38:51.252Z,58.22
2022-12-19T18:41:19.446Z,59.30
2022-12-19T18:43:45.958Z,61.08
2022-12-19T18:46:15.025Z,74.20
2022-12-19T18:48:44.213Z,85.80
2022-12-19T18:51:16.641Z,88.97
2022-12-19T18:53:44.012Z,73.70
2022-12-19T18:56:10.746Z,67.50
2022-12-19T18:58:37.096Z,78.97
2022-12-19T19:01:06.968Z,81.13
2022-12-19T19:03:39.803Z,68.10
2022-12-19T19:06:18.377Z,62.35
2022-12-19T19:08:44.689Z,69.72
2022-12-19T19:11:11.186Z,65.30
2022-12-19T19:13:37.523Z,62.38
2022-12-19T19:16:14.829Z,62.60
2022-12-19T19:18:41.774Z,70.95
2022-12-19T19:21:12.172Z,62.40
2022-12-19T19:23:44.403Z,57.20
2022-12-19T19:26:10.934Z,56.92
2022-12-19T19:28:38.785Z,48.63
2022-12-19T19:31:08.894Z,53.30
2022-12-19T19:33:39.502Z,56.72
2022-12-19T19:36:12.590Z,60.25
2022-12-19T19:38:42.417Z,52.17
2022-12-19T19:41:08.846Z,51.72
2022-12-19T19:43:35.650Z,58.63
2022-12-19T19:46:02.931Z,64.60
2022-12-19T19:48:29.743Z,60.55
2022-12-19T19:50:56.813Z,60.08
2022-12-19T19:53:23.309Z,59.53
2022-12-19T19:56:01.078Z,61.53
2022-12-19T19:58:28.263Z,57.75
2022-12-19T20:00:54.921Z,66.57
2022-12-19T20:03:23.264Z,59.63
2022-12-19T20:05:50.617Z,56.80
2022-12-19T20:08:16.927Z,51.95
2022-12-19T20:10:43.225Z,62.30
2022-12-19T20:13:11.107Z,53.85
2022-12-19T20:15:37.704Z,53.22
2022-12-19T20:18:04.235Z,57.38
2022-12-19T20:20:33.125Z,48.92
2022-12-19T20:22:59.505Z,47.70
2022-12-19T20:25:26.141Z,45.65
2022-12-19T20:27:52.457Z,50.33
2022-12-19T20:30:18.918Z,48.88
2022-12-19T20:32:45.235Z,46.72
2022-12-19T20:35:14.732Z,51.53
2022-12-19T20:37:41.864Z,41.17
2022-12-19T20:40:09.256Z,55.95
2022-12-19T20:42:35.722Z,51.40
2022-12-19T20:45:02.121Z,58.20
2022-12-19T20:47:28.475Z,63.70
2022-12-19T20:49:54.863Z,68.93
2022-12-19T20:52:21.257Z,59.67
2022-12-19T20:54:47.625Z,68.72
2022-12-19T20:57:14.006Z,55.88
2022-12-19T20:59:40.375Z,55.65
2022-12-19T21:02:07.026Z,52.10
2022-12-19T21:04:33.669Z,54.22
2022-12-19T21:07:00.039Z,56.47
2022-12-19T21:09:26.538Z,54.20
2022-12-19T21:11:53.088Z,49.80
2022-12-19T21:14:19.552Z,53.13
2022-12-19T21:16:46.317Z,57.80
2022-12-19T21:19:12.807Z,50.10
2022-12-19T21:21:39.153Z,58.45
2022-12-19T21:24:05.873Z,48.50
2022-12-19T21:26:32.526Z,46.35
2022-12-19T21:28:59.309Z,51.45
2022-12-19T21:31:29.576Z,46.60
2022-12-19T21:34:00.697Z,48.38
2022-12-19T21:36:28.064Z,52.38
2022-12-19T21:38:56.978Z,46.88
2022-12-19T21:41:23.473Z,50.03
2022-12-19T21:43:53.467Z,50.85
2022-12-19T21:46:22.616Z,61.92
2022-12-19T21:48:50.797Z,49.42
2022-12-19T21:51:20.031Z,51.08
2022-12-19T21:53:46.929Z,46.50
2022-12-19T21:56:28.179Z,50.70
2022-12-19T21:59:00.631Z,52.42
2022-12-19T22:01:27.987Z,59.25
2022-12-19T22:04:00.548Z,49.13
2022-12-19T22:06:30.794Z,55.22
2022-12-19T22:08:57.925Z,59.10
2022-12-19T22:11:24.954Z,56.17
2022-12-19T22:13:51.619Z,66.78
2022-12-19T22:16:18.081Z,56.45
2022-12-19T22:18:45.165Z,62.60
2022-12-19T22:21:13.490Z,65.22
2022-12-19T22:23:40.512Z,58.08
2022-12-19T22:26:10.688Z,59.47
2022-12-19T22:28:38.789Z,55.97
2022-12-19T22:31:25.878Z,49.20
2022-12-19T22:33:54.972Z,53.03
2022-12-19T22:36:28.012Z,63.97
2022-12-19T22:38:56.085Z,56.58
2022-12-19T22:41:22.456Z,61.25
2022-12-19T22:43:49.035Z,69.07
2022-12-19T22:46:21.043Z,61.58
2022-12-19T22:48:48.864Z,59.20
2022-12-19T22:51:16.888Z,62.83
2022-12-19T22:53:44.076Z,60.28
2022-12-19T22:56:13.387Z,56.17
2022-12-19T22:58:41.854Z,61.33
2022-12-19T23:01:14.969Z,63.50
2022-12-19T23:03:42.623Z,59.55
2022-12-19T23:06:09.248Z,57.90
2022-12-19T23:08:35.770Z,59.78
2022-12-19T23:11:03.197Z,54.40
2022-12-19T23:13:30.087Z,55.50
2022-12-19T23:15:57.265Z,60.10
2022-12-19T23:18:23.679Z,61.45
2022-12-19T23:20:50.085Z,54.78
2022-12-19T23:23:16.383Z,57.97
2022-12-19T23:25:42.692Z,59.30
2022-12-19T23:28:09.766Z,60.65
2022-12-19T23:30:36.847Z,56.03
2022-12-19T23:33:03.980Z,57.30
2022-12-19T23:35:32.853Z,51.30
2022-12-19T23:37:59.202Z,60.08
2022-12-19T23:40:25.535Z,56.15
2022-12-19T23:42:51.969Z,52.53
2022-12-19T23:45:18.299Z,57.20
2022-12-19T23:47:46.692Z,62.75
2022-12-19T23:50:13.004Z,50.47
2022-12-19T23:52:39.612Z,52.50
2022-12-19T23:55:06.651Z,62.13
2022-12-19T23:57:32.947Z,55.35
2022-12-19T23:59:59.517Z,57.35
